Time;durP1;ratioP1;P1;durP2;ratioP2;P2;SDS_P1;SDS_P2;PMS_P1;PMS_P2;Temp;Humidity;BMP_temperature;BMP_pressure;BME280_temperature;BME280_humidity;BME280_pressure;Samples;Min_cycle;Max_cycle;Signal;HPM_P1;HPM_P2
2021/12/26 00:01:32;;;;;;;2.93;2.27;;;-1.30;99.90;;;;;;5085652;27;39262;-73
2021/12/26 00:03:58;;;;;;;3.47;1.90;;;-1.40;99.90;;;;;;5084798;28;39589;-73
2021/12/26 00:06:26;;;;;;;3.20;2.20;;;-1.30;99.90;;;;;;5080828;27;37407;-73
2021/12/26 00:08:58;;;;;;;2.67;2.00;;;-1.40;99.90;;;;;;5082484;28;37894;-73
2021/12/26 00:11:24;;;;;;;5.00;2.13;;;-1.40;99.90;;;;;;5086816;27;39642;-73
2021/12/26 00:13:53;;;;;;;3.50;2.23;;;-1.40;99.90;;;;;;5088817;28;40081;-73
2021/12/26 00:16:19;;;;;;;3.00;1.83;;;-1.40;99.90;;;;;;5081240;27;37718;-73
2021/12/26 00:18:47;;;;;;;3.33;2.00;;;-1.40;99.90;;;;;;5089347;28;41096;-73
2021/12/26 00:21:21;;;;;;;4.67;2.40;;;-1.50;99.90;;;;;;5081319;27;38710;-73
2021/12/26 00:23:47;;;;;;;4.83;2.13;;;-1.50;99.90;;;;;;5079246;27;38416;-73
2021/12/26 00:26:14;;;;;;;3.20;1.87;;;-1.50;99.90;;;;;;5081536;27;37802;-73
2021/12/26 00:28:40;;;;;;;5.00;1.77;;;-1.50;99.90;;;;;;5086204;28;37835;-73
2021/12/26 00:31:07;;;;;;;3.20;2.37;;;-1.50;99.90;;;;;;5074406;27;38273;-73
2021/12/26 00:33:33;;;;;;;3.77;2.23;;;-1.50;99.90;;;;;;5088950;27;39003;-71
2021/12/26 00:36:00;;;;;;;3.30;1.80;;;-1.50;99.90;;;;;;5078888;27;36847;-74
2021/12/26 00:38:27;;;;;;;7.63;2.90;;;-1.60;99.90;;;;;;5074268;27;38692;-74
2021/12/26 00:40:53;;;;;;;4.53;2.70;;;-1.60;99.90;;;;;;5091749;27;39661;-74
2021/12/26 00:43:20;;;;;;;3.87;2.13;;;-1.60;99.90;;;;;;5083250;28;39070;-74
2021/12/26 00:45:46;;;;;;;4.37;2.57;;;-1.60;99.90;;;;;;5085926;27;37298;-73
2021/12/26 00:48:12;;;;;;;5.43;2.20;;;-1.70;99.90;;;;;;5086492;27;38554;-73
2021/12/26 00:50:41;;;;;;;4.77;2.50;;;-1.70;99.90;;;;;;5080356;27;39635;-74
2021/12/26 00:53:07;;;;;;;6.03;2.03;;;-1.70;99.90;;;;;;5081463;27;39032;-73
2021/12/26 00:55:34;;;;;;;4.90;2.37;;;-1.70;99.90;;;;;;5082041;28;38019;-73
2021/12/26 00:58:00;;;;;;;4.30;2.53;;;-1.60;99.90;;;;;;5086103;27;39009;-73
2021/12/26 01:00:33;;;;;;;2.73;2.03;;;-1.60;99.90;;;;;;5082643;27;38034;-72
2021/12/26 01:03:00;;;;;;;;;;;-1.60;99.90;;;;;;5082270;28;39255;-73
2021/12/26 01:05:27;;;;;;;4.90;2.40;;;-1.60;99.90;;;;;;5079833;27;37785;-73
2021/12/26 01:07:58;;;;;;;3.30;2.20;;;-1.60;99.90;;;;;;5086714;27;38878;-73
2021/12/26 01:10:33;;;;;;;3.37;2.13;;;-1.50;99.90;;;;;;5081765;27;39148;-73
2021/12/26 01:13:09;;;;;;;3.97;2.50;;;-1.40;99.90;;;;;;5088709;27;37927;-73
2021/12/26 01:15:35;;;;;;;5.37;2.23;;;-1.40;99.90;;;;;;5087314;27;47309;-72
2021/12/26 01:18:01;;;;;;;6.57;2.10;;;-1.30;99.90;;;;;;5082746;27;39577;-73
2021/12/26 01:20:55;;;;;;;6.57;2.20;;;-1.30;99.90;;;;;;5081773;27;37675;-73
2021/12/26 01:23:24;;;;;;;6.33;2.93;;;-1.30;99.90;;;;;;5077548;27;37520;-73
2021/12/26 01:25:50;;;;;;;3.60;2.37;;;-1.30;99.90;;;;;;5101195;27;36486;-73
2021/12/26 01:28:18;;;;;;;3.87;2.20;;;-1.30;99.90;;;;;;5080348;27;37645;-73
2021/12/26 01:30:45;;;;;;;8.13;2.50;;;-1.30;99.90;;;;;;5077987;27;38206;-73
2021/12/26 01:33:14;;;;;;;4.77;2.27;;;-1.30;99.90;;;;;;5075797;27;39461;-73
2021/12/26 01:35:41;;;;;;;4.60;2.23;;;-1.30;99.90;;;;;;5095024;27;37674;-73
2021/12/26 01:38:13;;;;;;;3.57;2.10;;;-1.30;99.90;;;;;;5080426;28;39182;-74
2021/12/26 01:40:48;;;;;;;3.22;2.10;;;-1.30;99.90;;;;;;5074624;27;38097;-73
2021/12/26 01:43:15;;;;;;;5.57;2.17;;;-1.30;99.90;;;;;;5080103;27;37312;-73
2021/12/26 01:45:42;;;;;;;4.17;2.30;;;-1.30;99.90;;;;;;5084662;27;37413;-72
2021/12/26 01:48:09;;;;;;;5.17;2.10;;;-1.40;99.90;;;;;;5111475;27;37737;-73
2021/12/26 01:50:37;;;;;;;3.40;2.20;;;-1.40;99.90;;;;;;5086601;27;37293;-73
2021/12/26 01:53:05;;;;;;;7.77;2.67;;;-1.50;99.90;;;;;;5084847;27;37227;-73
2021/12/26 01:55:43;;;;;;;4.27;2.40;;;-1.50;99.90;;;;;;5086524;27;37994;-74
2021/12/26 01:58:18;;;;;;;4.00;2.30;;;-1.50;99.90;;;;;;5088741;27;39284;-73
2021/12/26 02:00:48;;;;;;;5.37;2.10;;;-1.50;99.90;;;;;;5091047;27;38851;-73
2021/12/26 02:03:14;;;;;;;4.57;2.03;;;-1.40;99.90;;;;;;5085687;27;39212;-73
2021/12/26 02:05:41;;;;;;;4.63;2.27;;;-1.50;99.90;;;;;;5086485;27;37211;-72
2021/12/26 02:08:08;;;;;;;4.60;1.97;;;-1.40;99.90;;;;;;5084428;27;40954;-73
2021/12/26 02:10:35;;;;;;;4.20;2.23;;;-1.50;99.90;;;;;;5080071;27;38590;-73
2021/12/26 02:13:02;;;;;;;3.77;2.20;;;-1.50;99.90;;;;;;5085189;28;38474;-73
2021/12/26 02:15:28;;;;;;;3.30;1.90;;;-1.60;99.90;;;;;;5096754;27;47523;-73
2021/12/26 02:17:56;;;;;;;5.07;2.70;;;-1.60;99.90;;;;;;5085395;27;39010;-73
2021/12/26 02:20:44;;;;;;;4.27;1.97;;;-1.70;99.90;;;;;;5091000;27;38398;-73
2021/12/26 02:23:18;;;;;;;3.40;2.00;;;-1.70;99.90;;;;;;5083846;27;39407;-73
2021/12/26 02:28:16;;;;;;;4.57;1.90;;;-1.70;99.90;;;;;;5078197;27;38411;-73
2021/12/26 02:30:42;;;;;;;5.28;2.50;;;-1.70;99.90;;;;;;5082211;28;38417;-73
2021/12/26 02:33:11;;;;;;;4.67;2.60;;;-1.70;99.90;;;;;;5092358;27;37278;-71
2021/12/26 02:35:38;;;;;;;3.20;1.97;;;-1.70;99.90;;;;;;5078218;27;37988;-73
2021/12/26 02:38:06;;;;;;;3.63;2.23;;;-1.70;99.90;;;;;;5077273;27;39406;-74
2021/12/26 02:40:32;;;;;;;3.50;2.30;;;-1.80;99.90;;;;;;5075622;27;38635;-74
2021/12/26 02:42:59;;;;;;;3.30;2.10;;;-1.80;99.90;;;;;;5080512;28;38559;-73
2021/12/26 02:45:25;;;;;;;3.93;2.20;;;-1.80;99.90;;;;;;5081489;27;37251;-73
2021/12/26 02:47:52;;;;;;;3.53;2.20;;;-1.80;99.90;;;;;;5086098;27;39543;-73
2021/12/26 02:50:22;;;;;;;4.13;2.20;;;-1.80;99.90;;;;;;5075716;27;37559;-74
2021/12/26 02:52:48;;;;;;;3.87;2.27;;;-1.80;99.90;;;;;;5108953;27;39370;-72
2021/12/26 02:55:17;;;;;;;4.30;2.40;;;-1.80;99.90;;;;;;5077466;27;40662;-72
2021/12/26 02:57:48;;;;;;;2.93;2.00;;;-1.80;99.90;;;;;;5093206;27;37642;-74
2021/12/26 03:00:19;;;;;;;3.40;2.10;;;-1.80;99.90;;;;;;5084745;27;39907;-72
2021/12/26 03:02:48;;;;;;;5.83;2.73;;;-1.90;99.90;;;;;;5081975;28;38322;-73
2021/12/26 03:05:16;;;;;;;4.77;2.10;;;-1.80;99.90;;;;;;5082967;27;37761;-73
2021/12/26 03:07:42;;;;;;;3.83;2.10;;;-1.80;99.90;;;;;;5085776;27;39820;-73
2021/12/26 03:10:21;;;;;;;5.97;2.80;;;-1.90;99.90;;;;;;5079347;27;36696;-73
2021/12/26 03:12:52;;;;;;;7.07;2.30;;;-1.90;99.90;;;;;;5079960;28;37908;-73
2021/12/26 03:15:19;;;;;;;4.43;2.43;;;-1.90;99.90;;;;;;5073083;27;37661;-73
2021/12/26 03:17:46;;;;;;;3.93;2.30;;;-1.90;99.90;;;;;;5088513;28;39245;-72
2021/12/26 03:20:14;;;;;;;3.50;2.60;;;-1.90;99.90;;;;;;5085883;27;39562;-72
2021/12/26 03:22:40;;;;;;;4.20;2.20;;;-1.80;99.90;;;;;;5076651;27;39789;-71
2021/12/26 03:25:18;;;;;;;5.13;2.43;;;-1.80;99.90;;;;;;5079488;27;37900;-72
2021/12/26 03:27:45;;;;;;;3.70;2.20;;;-1.90;99.90;;;;;;5078013;27;39071;-72
2021/12/26 03:30:13;;;;;;;5.40;2.80;;;-1.80;99.90;;;;;;5080109;27;39842;-72
2021/12/26 03:32:40;;;;;;;5.47;2.43;;;-1.80;99.90;;;;;;5083215;27;38262;-72
2021/12/26 03:35:07;;;;;;;3.87;2.47;;;-1.80;99.90;;;;;;5081934;27;37133;-73
2021/12/26 03:37:34;;;;;;;3.30;2.27;;;-1.90;99.90;;;;;;5084863;28;39288;-72
2021/12/26 03:40:00;;;;;;;7.43;2.80;;;-1.90;99.90;;;;;;5083011;27;38347;-72
2021/12/26 03:42:26;;;;;;;6.13;2.40;;;-1.90;99.90;;;;;;5086715;27;39348;-73
2021/12/26 03:44:53;;;;;;;5.87;2.67;;;-1.90;99.90;;;;;;5080887;28;37052;-72
2021/12/26 03:47:19;;;;;;;3.33;2.30;;;-1.90;99.90;;;;;;5082260;27;40522;-73
2021/12/26 03:49:47;;;;;;;3.23;2.07;;;-1.90;99.90;;;;;;5088459;27;38106;-73
2021/12/26 03:52:14;;;;;;;3.00;2.20;;;-1.80;99.90;;;;;;5082078;27;38059;-74
2021/12/26 03:54:40;;;;;;;5.10;2.70;;;-1.90;99.90;;;;;;5086558;27;38202;-74
2021/12/26 03:57:06;;;;;;;5.23;2.70;;;-1.90;99.90;;;;;;5086270;27;39108;-73
2021/12/26 03:59:32;;;;;;;3.90;2.27;;;-1.90;99.90;;;;;;5086969;27;37831;-73
2021/12/26 04:01:59;;;;;;;6.70;2.47;;;-1.90;99.90;;;;;;5083334;27;39562;-72
2021/12/26 04:04:26;;;;;;;4.63;1.97;;;-1.90;99.90;;;;;;5074724;27;37942;-73
2021/12/26 04:06:52;;;;;;;4.60;2.60;;;-1.90;99.90;;;;;;5084407;27;39395;-73
2021/12/26 04:09:18;;;;;;;4.97;2.60;;;-1.90;99.90;;;;;;5088185;27;38651;-73
2021/12/26 04:11:45;;;;;;;6.30;2.90;;;-1.90;99.90;;;;;;5091188;27;37709;-72
2021/12/26 04:14:16;;;;;;;5.37;2.97;;;-2.00;99.90;;;;;;5082045;27;37372;-73
2021/12/26 04:16:42;;;;;;;5.87;2.50;;;-1.90;99.90;;;;;;5078316;28;40595;-71
2021/12/26 04:19:09;;;;;;;3.40;2.40;;;-1.90;99.90;;;;;;5080171;27;37669;-72
2021/12/26 04:21:35;;;;;;;3.20;2.20;;;-1.90;99.90;;;;;;5079989;27;38192;-72
2021/12/26 04:24:02;;;;;;;3.87;2.20;;;-1.90;99.90;;;;;;5083744;28;38980;-73
2021/12/26 04:26:29;;;;;;;6.97;2.70;;;-1.90;99.90;;;;;;5093000;27;46977;-72
2021/12/26 04:28:55;;;;;;;3.33;2.60;;;-1.90;99.90;;;;;;5093875;27;38245;-73
2021/12/26 04:31:21;;;;;;;4.37;2.40;;;-2.00;99.90;;;;;;5079382;27;39375;-73
2021/12/26 04:33:48;;;;;;;4.53;2.30;;;-2.00;99.90;;;;;;5080888;27;37881;-72
2021/12/26 04:36:14;;;;;;;3.80;2.37;;;-2.00;99.90;;;;;;5089780;27;40646;-72
2021/12/26 04:38:41;;;;;;;7.10;2.50;;;-2.00;99.90;;;;;;5073221;28;40021;-73
2021/12/26 04:41:08;;;;;;;4.37;2.73;;;-2.00;99.90;;;;;;5073584;27;38851;-73
2021/12/26 04:43:36;;;;;;;5.03;3.20;;;-2.00;99.90;;;;;;5082047;28;39432;-72
2021/12/26 04:46:05;;;;;;;3.60;2.07;;;-2.00;99.90;;;;;;5073233;27;39707;-73
2021/12/26 04:48:40;;;;;;;4.00;2.40;;;-2.00;99.90;;;;;;5085753;27;38013;-73
2021/12/26 04:51:09;;;;;;;5.77;2.37;;;-2.00;99.90;;;;;;5075109;27;37460;-72
2021/12/26 04:53:35;;;;;;;4.90;2.30;;;-2.00;99.90;;;;;;5083940;28;38169;-73
2021/12/26 04:56:02;;;;;;;4.77;2.53;;;-2.00;99.90;;;;;;5084507;27;40740;-73
2021/12/26 04:58:29;;;;;;;4.03;2.30;;;-2.00;99.90;;;;;;5088096;27;37724;-72
2021/12/26 05:00:55;;;;;;;5.97;2.30;;;-2.00;99.90;;;;;;5084970;27;37799;-73
2021/12/26 05:03:22;;;;;;;5.50;2.73;;;-2.00;99.90;;;;;;5080615;27;37965;-74
2021/12/26 05:05:48;;;;;;;4.87;2.97;;;-2.10;99.90;;;;;;5076542;27;38881;-73
2021/12/26 05:08:14;;;;;;;4.57;2.63;;;-2.10;99.90;;;;;;5091203;27;39658;-73
2021/12/26 05:10:41;;;;;;;3.47;2.63;;;-2.10;99.90;;;;;;5080625;28;36780;-73
2021/12/26 05:13:08;;;;;;;3.30;2.50;;;-2.10;99.90;;;;;;5084717;27;37172;-73
2021/12/26 05:15:34;;;;;;;5.97;2.47;;;-2.10;99.90;;;;;;5081253;27;39719;-71
2021/12/26 05:18:00;;;;;;;5.73;2.87;;;-2.10;99.90;;;;;;5086082;27;39980;-73
2021/12/26 05:20:27;;;;;;;10.07;3.17;;;-2.20;99.90;;;;;;5083204;27;38701;-72
2021/12/26 05:22:55;;;;;;;4.70;3.20;;;-2.20;99.90;;;;;;5079308;27;37940;-73
2021/12/26 05:25:23;;;;;;;7.13;2.63;;;-2.20;99.90;;;;;;5082601;27;39255;-73
2021/12/26 05:27:51;;;;;;;3.70;2.53;;;-2.20;99.90;;;;;;5081694;28;40321;-73
2021/12/26 05:30:19;;;;;;;4.37;2.90;;;-2.20;99.90;;;;;;5077084;27;38010;-73
2021/12/26 05:32:45;;;;;;;4.70;2.57;;;-2.20;99.90;;;;;;5084589;27;37069;-72
2021/12/26 05:35:13;;;;;;;4.60;2.50;;;-2.20;99.90;;;;;;5092342;27;38995;-72
2021/12/26 05:37:40;;;;;;;6.80;2.87;;;-2.20;99.90;;;;;;5083163;28;39214;-73
2021/12/26 05:40:08;;;;;;;5.53;2.90;;;-2.20;99.90;;;;;;5076218;27;38592;-73
2021/12/26 05:42:35;;;;;;;5.17;2.90;;;-2.20;99.90;;;;;;5082173;28;38458;-73
2021/12/26 05:45:02;;;;;;;5.73;2.90;;;-2.20;99.90;;;;;;5080628;27;38781;-73
2021/12/26 05:47:28;;;;;;;7.50;3.23;;;-2.20;99.90;;;;;;5085942;27;47454;-72
2021/12/26 05:49:54;;;;;;;7.63;2.50;;;-2.20;99.90;;;;;;5083335;28;36919;-72
2021/12/26 05:52:20;;;;;;;5.87;2.97;;;-2.20;99.90;;;;;;5075941;27;38045;-73
2021/12/26 05:54:47;;;;;;;5.30;2.70;;;-2.20;99.90;;;;;;5075515;27;40726;-73
2021/12/26 05:57:15;;;;;;;6.93;2.97;;;-2.30;99.90;;;;;;5076143;28;39436;-73
2021/12/26 05:59:42;;;;;;;5.17;3.20;;;-2.30;99.90;;;;;;5077911;28;39345;-73
2021/12/26 06:02:08;;;;;;;4.80;3.10;;;-2.30;99.90;;;;;;5076480;27;39410;-72
2021/12/26 06:04:34;;;;;;;6.07;2.93;;;-2.30;99.90;;;;;;5078655;28;40203;-72
2021/12/26 06:07:00;;;;;;;5.97;4.00;;;-2.30;99.90;;;;;;5074918;27;37499;-73
2021/12/26 06:09:27;;;;;;;4.43;2.60;;;-2.30;99.90;;;;;;5074635;28;39395;-72
2021/12/26 06:11:53;;;;;;;8.40;3.30;;;-2.30;99.90;;;;;;5097152;27;37477;-72
2021/12/26 06:14:19;;;;;;;4.53;3.00;;;-2.30;99.90;;;;;;5093231;27;38402;-72
2021/12/26 06:16:46;;;;;;;6.27;2.93;;;-2.30;99.90;;;;;;5076130;28;43647;-72
2021/12/26 06:19:12;;;;;;;5.93;3.27;;;-2.30;99.90;;;;;;5078290;28;39924;-72
2021/12/26 06:21:38;;;;;;;5.37;2.80;;;-2.30;99.90;;;;;;5083903;27;38462;-73
2021/12/26 06:24:05;;;;;;;4.90;3.23;;;-2.30;99.90;;;;;;5080394;27;39602;-73
2021/12/26 06:26:31;;;;;;;7.73;2.87;;;-2.30;99.90;;;;;;5076324;28;40227;-73
2021/12/26 06:28:58;;;;;;;5.47;3.30;;;-2.30;99.90;;;;;;5086176;27;38686;-72
2021/12/26 06:31:24;;;;;;;5.00;2.70;;;-2.30;99.90;;;;;;5075968;27;37662;-73
2021/12/26 06:33:50;;;;;;;4.50;2.90;;;-2.30;99.90;;;;;;5072311;27;39143;-73
2021/12/26 06:36:17;;;;;;;7.60;3.23;;;-2.30;99.90;;;;;;5079543;27;37988;-72
2021/12/26 06:38:45;;;;;;;4.63;3.10;;;-2.30;99.90;;;;;;5086832;28;37349;-72
2021/12/26 06:41:15;;;;;;;4.10;2.80;;;-2.30;99.90;;;;;;5088490;27;37495;-72
2021/12/26 06:43:42;;;;;;;5.27;3.77;;;-2.30;99.90;;;;;;5077467;27;39730;-72
2021/12/26 06:46:08;;;;;;;4.93;3.13;;;-2.30;99.90;;;;;;5074835;27;39134;-72
2021/12/26 06:48:37;;;;;;;6.87;3.57;;;-2.30;99.90;;;;;;5074276;27;40135;-72
2021/12/26 06:51:03;;;;;;;5.10;3.13;;;-2.30;99.90;;;;;;5079562;27;38754;-72
2021/12/26 06:53:29;;;;;;;4.30;3.30;;;-2.30;99.90;;;;;;5077346;27;39938;-73
2021/12/26 06:55:55;;;;;;;7.30;3.40;;;-2.30;99.90;;;;;;5085208;27;38841;-73
2021/12/26 06:58:21;;;;;;;5.53;3.20;;;-2.30;99.90;;;;;;5088741;27;38753;-73
2021/12/26 07:00:48;;;;;;;6.27;3.50;;;-2.30;99.90;;;;;;5082320;28;37840;-73
2021/12/26 07:03:14;;;;;;;5.60;3.33;;;-2.30;99.90;;;;;;5091193;27;39026;-73
2021/12/26 07:05:40;;;;;;;4.70;3.40;;;-2.30;99.90;;;;;;5092868;27;38265;-73
2021/12/26 07:08:07;;;;;;;7.13;3.80;;;-2.30;99.90;;;;;;5084023;27;37938;-73
2021/12/26 07:10:33;;;;;;;5.03;3.33;;;-2.30;99.90;;;;;;5085629;28;37619;-72
2021/12/26 07:13:00;;;;;;;4.83;3.67;;;-2.40;99.90;;;;;;5080390;27;39902;-72
2021/12/26 07:15:26;;;;;;;4.93;3.27;;;-2.40;99.90;;;;;;5080444;27;39022;-72
2021/12/26 07:17:52;;;;;;;5.33;3.63;;;-2.40;99.90;;;;;;5085974;28;36976;-72
2021/12/26 07:20:19;;;;;;;8.03;3.63;;;-2.40;99.90;;;;;;5082987;27;37951;-73
2021/12/26 07:22:46;;;;;;;4.53;3.30;;;-2.40;99.90;;;;;;5082564;28;37976;-73
2021/12/26 07:25:13;;;;;;;5.03;3.30;;;-2.40;99.90;;;;;;5076238;27;39200;-73
2021/12/26 07:27:40;;;;;;;8.10;4.00;;;-2.40;99.90;;;;;;5085767;27;36715;-73
2021/12/26 07:30:07;;;;;;;5.90;3.53;;;-2.40;99.90;;;;;;5096212;27;37513;-73
2021/12/26 07:32:33;;;;;;;5.37;3.10;;;-2.40;99.90;;;;;;5083382;28;47235;-71
2021/12/26 07:35:00;;;;;;;6.27;3.57;;;-2.40;99.90;;;;;;5094107;27;38405;-72
2021/12/26 07:37:27;;;;;;;4.77;3.33;;;-2.40;99.90;;;;;;5075268;27;37751;-73
2021/12/26 07:39:54;;;;;;;5.93;3.83;;;-2.40;99.90;;;;;;5088562;27;37934;-73
2021/12/26 07:42:20;;;;;;;5.00;3.73;;;-2.40;99.90;;;;;;5084483;27;39517;-74
2021/12/26 07:44:46;;;;;;;6.67;3.60;;;-2.40;99.90;;;;;;5085731;27;38285;-73
2021/12/26 07:47:13;;;;;;;6.50;4.00;;;-2.40;99.90;;;;;;5083782;27;37036;-72
2021/12/26 07:49:40;;;;;;;6.13;3.83;;;-2.40;99.90;;;;;;5082093;28;37555;-73
2021/12/26 07:52:18;;;;;;;8.03;3.30;;;-2.40;99.90;;;;;;5081643;27;39328;-73
2021/12/26 07:54:45;;;;;;;5.17;3.03;;;-2.40;99.90;;;;;;5092364;27;39036;-72
2021/12/26 07:57:11;;;;;;;4.07;2.90;;;-2.40;99.90;;;;;;5087376;27;38121;-73
2021/12/26 07:59:38;;;;;;;7.90;3.53;;;-2.40;99.90;;;;;;5087090;27;38213;-73
2021/12/26 08:02:04;;;;;;;4.70;3.40;;;-2.50;99.90;;;;;;5083156;27;38737;-72
2021/12/26 08:04:31;;;;;;;5.60;3.30;;;-2.40;99.90;;;;;;5100336;27;38788;-72
2021/12/26 08:06:58;;;;;;;7.70;4.20;;;-2.40;99.90;;;;;;5080240;28;38835;-73
2021/12/26 08:09:25;;;;;;;5.90;3.30;;;-2.40;99.90;;;;;;5085624;27;38776;-73
2021/12/26 08:11:51;;;;;;;6.10;3.40;;;-2.40;99.90;;;;;;5079367;27;39641;-72
2021/12/26 08:14:18;;;;;;;4.77;3.07;;;-2.40;99.90;;;;;;5083185;27;38167;-73
2021/12/26 08:16:44;;;;;;;9.83;3.87;;;-2.40;99.90;;;;;;5079079;27;37811;-72
2021/12/26 08:19:11;;;;;;;5.57;3.13;;;-2.40;99.90;;;;;;5083357;27;37018;-74
2021/12/26 08:21:38;;;;;;;6.17;3.60;;;-2.30;99.90;;;;;;5077713;27;38782;-73
2021/12/26 08:24:04;;;;;;;5.40;3.33;;;-2.20;99.90;;;;;;5086692;27;38456;-71
2021/12/26 08:26:32;;;;;;;7.53;3.43;;;-2.20;99.90;;;;;;5086434;27;38398;-73
2021/12/26 08:28:59;;;;;;;6.03;3.27;;;-2.10;99.90;;;;;;5093117;27;36777;-72
2021/12/26 08:31:25;;;;;;;6.50;4.00;;;-2.10;99.90;;;;;;5074635;27;39954;-72
2021/12/26 08:33:52;;;;;;;5.47;3.20;;;-2.10;99.90;;;;;;5079733;27;39261;-73
2021/12/26 08:36:19;;;;;;;5.80;3.37;;;-2.10;99.90;;;;;;5074329;27;38233;-72
2021/12/26 08:38:47;;;;;;;6.00;3.27;;;-2.00;99.90;;;;;;5082266;28;36612;-73
2021/12/26 08:41:13;;;;;;;5.37;3.27;;;-1.90;99.90;;;;;;5076605;27;38645;-73
2021/12/26 08:43:43;;;;;;;4.40;3.17;;;-1.90;99.90;;;;;;5078078;27;39683;-73
2021/12/26 08:46:12;;;;;;;6.87;3.90;;;-1.90;99.90;;;;;;5081819;27;38136;-72
2021/12/26 08:48:39;;;;;;;6.40;3.20;;;-1.80;99.90;;;;;;5086492;27;37579;-73
2021/12/26 08:51:05;;;;;;;6.47;3.63;;;-1.80;99.90;;;;;;5080297;27;39637;-72
2021/12/26 08:53:32;;;;;;;4.80;3.23;;;-1.70;99.90;;;;;;5088863;27;38151;-72
2021/12/26 08:55:59;;;;;;;8.33;3.73;;;-1.60;99.90;;;;;;5084184;28;37773;-72
2021/12/26 08:58:26;;;;;;;4.77;3.40;;;-1.50;99.90;;;;;;5087762;27;37930;-74
2021/12/26 09:00:52;;;;;;;5.50;3.60;;;-1.40;99.90;;;;;;5088810;27;38860;-72
2021/12/26 09:03:18;;;;;;;6.77;3.70;;;-1.30;99.90;;;;;;5097638;27;36587;-73
2021/12/26 09:05:45;;;;;;;6.67;3.70;;;-1.20;99.90;;;;;;5091797;27;39704;-73
2021/12/26 09:08:11;;;;;;;8.50;3.93;;;-1.20;99.90;;;;;;5080628;27;36934;-73
2021/12/26 09:10:38;;;;;;;5.87;3.53;;;-1.10;99.90;;;;;;5088596;27;38878;-72
2021/12/26 09:13:06;;;;;;;6.23;3.83;;;-1.00;99.90;;;;;;5092754;27;38868;-72
2021/12/26 09:15:33;;;;;;;9.10;3.43;;;-1.00;99.90;;;;;;5091859;27;38094;-72
2021/12/26 09:18:00;;;;;;;6.33;3.40;;;-0.90;99.90;;;;;;5088080;27;37168;-72
2021/12/26 09:20:26;;;;;;;7.43;3.70;;;-0.90;99.90;;;;;;5093014;27;39082;-72
2021/12/26 09:22:53;;;;;;;6.13;3.20;;;-0.80;99.90;;;;;;5087912;27;39304;-73
2021/12/26 09:25:19;;;;;;;7.53;3.67;;;-0.80;99.90;;;;;;5087735;27;38440;-73
2021/12/26 09:27:45;;;;;;;4.70;3.13;;;-0.70;99.90;;;;;;5089665;27;37495;-72
2021/12/26 09:30:12;;;;;;;7.07;3.80;;;-0.70;99.90;;;;;;5096006;27;38639;-72
2021/12/26 09:32:38;;;;;;;6.80;4.80;;;-0.60;99.90;;;;;;5096764;27;38182;-72
2021/12/26 09:35:06;;;;;;;6.73;4.00;;;-0.50;99.90;;;;;;5092688;27;37074;-72
2021/12/26 09:37:32;;;;;;;7.87;4.90;;;-0.40;99.90;;;;;;5112534;27;38456;-72
2021/12/26 09:39:59;;;;;;;8.93;4.97;;;-0.30;99.90;;;;;;5103714;27;40035;-72
2021/12/26 09:42:25;;;;;;;10.67;4.80;;;-0.30;99.90;;;;;;5088302;27;40042;-72
2021/12/26 09:44:52;;;;;;;6.93;3.90;;;-0.30;99.90;;;;;;5093239;27;38472;-71
2021/12/26 09:47:18;;;;;;;8.73;4.63;;;-0.20;99.90;;;;;;5095400;27;39150;-74
2021/12/26 09:49:44;;;;;;;7.80;5.07;;;-0.10;99.90;;;;;;5102335;27;38987;-72
2021/12/26 09:52:11;;;;;;;12.57;10.13;;;0.00;99.90;;;;;;5086152;27;39118;-72
2021/12/26 09:54:38;;;;;;;9.20;4.57;;;0.10;99.90;;;;;;5087453;27;38652;-71
2021/12/26 09:57:05;;;;;;;10.97;4.77;;;0.10;99.90;;;;;;5076796;27;39392;-71
2021/12/26 09:59:31;;;;;;;6.67;4.57;;;0.20;99.90;;;;;;5076177;27;39604;-71
2021/12/26 10:02:07;;;;;;;5.93;3.83;;;0.30;99.90;;;;;;5104950;27;38627;-71
2021/12/26 10:04:36;;;;;;;7.47;4.17;;;0.30;99.90;;;;;;5093613;27;48671;-71
2021/12/26 10:07:14;;;;;;;7.93;4.37;;;0.20;99.90;;;;;;5089527;27;37856;-73
2021/12/26 10:09:43;;;;;;;8.00;4.70;;;0.20;99.90;;;;;;5086583;27;39795;-72
2021/12/26 10:12:13;;;;;;;7.30;4.53;;;0.20;99.90;;;;;;5086284;27;38574;-72
2021/12/26 10:14:40;;;;;;;7.63;4.47;;;0.40;99.90;;;;;;5086317;28;40105;-72
2021/12/26 10:17:26;;;;;;;8.33;4.67;;;0.30;99.90;;;;;;5081250;27;37036;-72
2021/12/26 10:19:59;;;;;;;7.47;4.67;;;0.40;99.90;;;;;;5083732;28;40500;-71
2021/12/26 10:22:26;;;;;;;11.80;4.20;;;0.50;99.90;;;;;;5084440;27;38437;-72
2021/12/26 10:24:55;;;;;;;6.73;4.47;;;0.60;99.90;;;;;;5081038;28;38397;-72
2021/12/26 10:27:26;;;;;;;6.93;4.00;;;0.60;99.90;;;;;;5085077;27;37840;-72
2021/12/26 10:29:55;;;;;;;8.10;4.70;;;0.60;99.90;;;;;;5081970;27;38838;-71
2021/12/26 10:32:25;;;;;;;7.67;4.03;;;0.60;99.90;;;;;;5081247;27;37863;-72
2021/12/26 10:34:57;;;;;;;7.17;4.00;;;0.60;99.90;;;;;;5082230;28;38924;-71
2021/12/26 10:37:25;;;;;;;8.95;4.60;;;0.70;99.90;;;;;;5086297;27;37614;-70
2021/12/26 10:39:54;;;;;;;8.57;4.80;;;0.70;99.90;;;;;;5089985;27;37624;-72
2021/12/26 10:42:28;;;;;;;7.33;4.40;;;0.80;99.90;;;;;;5084862;27;39339;-73
2021/12/26 10:44:55;;;;;;;9.17;4.83;;;1.00;99.90;;;;;;5094538;27;38339;-70
2021/12/26 10:47:26;;;;;;;8.17;4.80;;;1.00;99.90;;;;;;5087712;27;36962;-70
2021/12/26 10:50:06;;;;;;;10.33;5.60;;;1.00;99.90;;;;;;5085562;27;38758;-71
2021/12/26 10:52:35;;;;;;;7.83;4.50;;;1.00;99.90;;;;;;5078015;28;46969;-71
2021/12/26 10:55:11;;;;;;;8.37;4.87;;;1.10;99.90;;;;;;5082695;27;37811;-71
2021/12/26 10:57:43;;;;;;;7.70;4.80;;;1.10;99.90;;;;;;5084378;27;49043;-71
2021/12/26 11:00:23;;;;;;;6.38;4.07;;;1.20;99.90;;;;;;5081639;27;42602;-71
2021/12/26 11:02:53;;;;;;;7.20;4.40;;;1.20;99.90;;;;;;5083730;28;39269;-71
2021/12/26 11:05:23;;;;;;;6.20;4.50;;;1.40;99.90;;;;;;5092410;27;38020;-71
2021/12/26 11:07:56;;;;;;;7.90;4.70;;;1.40;99.90;;;;;;5079658;28;37306;-70
2021/12/26 11:10:41;;;;;;;9.07;5.70;;;1.60;99.90;;;;;;5083670;27;38702;-71
2021/12/26 11:13:16;;;;;;;6.13;4.37;;;1.70;99.90;;;;;;5084638;27;39487;-72
2021/12/26 11:15:45;;;;;;;7.30;4.80;;;1.80;99.90;;;;;;5075998;28;39166;-71
2021/12/26 11:18:13;;;;;;;6.77;5.07;;;1.80;99.90;;;;;;5080775;27;36761;-71
2021/12/26 11:20:47;;;;;;;7.03;5.03;;;1.90;99.90;;;;;;5087405;27;39911;-71
2021/12/26 11:23:20;;;;;;;8.13;4.63;;;2.00;99.90;;;;;;5113465;27;39016;-71
2021/12/26 11:25:59;;;;;;;9.73;5.25;;;2.00;99.90;;;;;;5075736;27;38001;-73
2021/12/26 11:28:30;;;;;;;7.40;4.77;;;2.10;99.90;;;;;;5073863;28;37931;-72
2021/12/26 11:31:05;;;;;;;9.13;5.37;;;1.90;99.90;;;;;;5080277;27;38646;-72
2021/12/26 11:33:32;;;;;;;9.13;5.10;;;2.00;99.90;;;;;;5081031;28;46865;-73
2021/12/26 11:36:00;;;;;;;8.17;5.27;;;2.00;99.90;;;;;;5089711;27;38894;-73
2021/12/26 11:38:27;;;;;;;9.13;5.17;;;2.00;99.90;;;;;;5078140;27;39297;-73
2021/12/26 11:41:16;;;;;;;10.20;5.47;;;2.20;99.90;;;;;;5083420;28;40790;-72
2021/12/26 11:43:54;;;;;;;7.20;5.07;;;2.30;99.90;;;;;;5085574;27;49112;-73
2021/12/26 11:46:39;;;;;;;7.77;5.20;;;2.20;99.90;;;;;;5082124;28;38690;-73
2021/12/26 11:49:37;;;;;;;8.33;5.93;;;2.30;99.90;;;;;;5082252;27;36846;-72
2021/12/26 11:52:18;;;;;;;7.67;5.17;;;2.30;99.90;;;;;;5099708;27;39948;-73
2021/12/26 11:55:04;;;;;;;7.13;4.90;;;2.50;99.90;;;;;;5096085;27;39351;-72
2021/12/26 11:58:11;;;;;;;8.00;5.83;;;2.60;99.90;;;;;;5085863;27;48672;-73
2021/12/26 12:00:41;;;;;;;10.20;5.63;;;2.40;99.90;;;;;;5096282;27;50776;-73
2021/12/26 12:03:29;;;;;;;8.37;5.67;;;2.30;99.90;;;;;;5080216;27;38925;-72
2021/12/26 12:05:56;;;;;;;9.10;5.50;;;2.40;99.90;;;;;;5098484;27;38436;-72
2021/12/26 12:08:31;;;;;;;8.97;5.73;;;2.40;99.90;;;;;;5096272;27;37981;-73
2021/12/26 12:11:07;;;;;;;8.87;5.57;;;2.50;99.90;;;;;;5089358;27;37621;-72
2021/12/26 12:13:44;;;;;;;7.77;5.60;;;2.50;99.90;;;;;;5090165;27;46907;-73
2021/12/26 12:16:13;;;;;;;9.17;6.47;;;2.60;99.90;;;;;;5092858;27;37650;-72
2021/12/26 12:18:53;;;;;;;10.37;6.70;;;2.70;99.90;;;;;;5082230;27;38162;-72
2021/12/26 12:21:43;;;;;;;9.97;6.37;;;2.90;99.90;;;;;;5112890;27;38547;-73
2021/12/26 12:24:11;;;;;;;11.50;6.40;;;2.80;99.90;;;;;;5085554;27;39849;-72
2021/12/26 12:26:56;;;;;;;9.17;5.90;;;2.80;99.90;;;;;;5104411;27;37291;-72
2021/12/26 12:29:25;;;;;;;10.87;6.37;;;2.70;99.90;;;;;;5100805;27;37925;-70
2021/12/26 12:32:26;;;;;;;9.53;6.47;;;2.60;99.90;;;;;;5088361;27;37578;-71
2021/12/26 12:35:01;;;;;;;10.57;6.60;;;2.60;99.90;;;;;;5079211;27;47100;-72
2021/12/26 12:37:27;;;;;;;12.80;6.90;;;2.70;99.90;;;;;;5083960;27;37550;-72
2021/12/26 12:40:28;;;;;;;11.50;7.03;;;2.70;99.90;;;;;;5084636;28;39171;-72
2021/12/26 12:43:09;;;;;;;11.73;6.93;;;2.70;99.90;;;;;;5101362;27;47604;-73
2021/12/26 12:45:54;;;;;;;9.80;6.80;;;2.80;99.90;;;;;;5080449;27;48378;-73
2021/12/26 12:48:47;;;;;;;12.13;7.67;;;2.80;99.90;;;;;;5081048;27;38432;-72
2021/12/26 12:51:16;;;;;;;10.53;6.80;;;2.80;99.90;;;;;;5080548;27;38350;-71
2021/12/26 12:53:44;;;;;;;11.63;7.10;;;2.70;99.90;;;;;;5086193;28;36847;-72
2021/12/26 12:56:33;;;;;;;11.50;7.17;;;2.70;99.90;;;;;;5100969;27;39128;-71
2021/12/26 12:59:19;;;;;;;14.77;7.33;;;2.80;99.90;;;;;;5091471;28;37322;-72
2021/12/26 13:01:57;;;;;;;10.83;6.80;;;2.80;99.90;;;;;;5106847;27;47004;-73